sensor_id;sensor_type;location;lat;lon;timestamp;P1;durP1;ratioP1;P2;durP2;ratioP2
77262;SDS011;66373;52.334;4.806;2023-12-20T00:00:35;12.55;;;6.78;;
77262;SDS011;66373;52.334;4.806;2023-12-20T00:03:02;10.63;;;6.25;;
77262;SDS011;66373;52.334;4.806;2023-12-20T00:05:31;13.70;;;6.85;;
77262;SDS011;66373;52.334;4.806;2023-12-20T00:07:58;12.20;;;5.90;;
77262;SDS011;66373;52.334;4.806;2023-12-20T00:10:26;10.52;;;6.28;;
77262;SDS011;66373;52.334;4.806;2023-12-20T00:12:54;10.82;;;6.10;;
77262;SDS011;66373;52.334;4.806;2023-12-20T00:15:22;11.15;;;6.35;;
77262;SDS011;66373;52.334;4.806;2023-12-20T00:17:49;9.65;;;6.20;;
77262;SDS011;66373;52.334;4.806;2023-12-20T00:20:16;7.93;;;5.28;;
77262;SDS011;66373;52.334;4.806;2023-12-20T00:22:44;11.52;;;6.20;;
77262;SDS011;66373;52.334;4.806;2023-12-20T00:25:11;10.13;;;5.75;;
77262;SDS011;66373;52.334;4.806;2023-12-20T00:27:38;11.52;;;5.88;;
77262;SDS011;66373;52.334;4.806;2023-12-20T00:30:08;11.15;;;5.45;;
77262;SDS011;66373;52.334;4.806;2023-12-20T00:32:36;8.30;;;5.28;;
77262;SDS011;66373;52.334;4.806;2023-12-20T00:35:04;12.93;;;5.93;;
77262;SDS011;66373;52.334;4.806;2023-12-20T00:37:31;9.45;;;5.50;;
77262;SDS011;66373;52.334;4.806;2023-12-20T00:39:59;10.27;;;5.97;;
77262;SDS011;66373;52.334;4.806;2023-12-20T00:42:27;9.85;;;5.40;;
77262;SDS011;66373;52.334;4.806;2023-12-20T00:44:55;10.45;;;5.22;;
77262;SDS011;66373;52.334;4.806;2023-12-20T00:47:23;10.80;;;5.40;;
77262;SDS011;66373;52.334;4.806;2023-12-20T00:49:51;8.68;;;4.85;;
77262;SDS011;66373;52.334;4.806;2023-12-20T00:52:18;15.02;;;5.00;;
77262;SDS011;66373;52.334;4.806;2023-12-20T00:54:48;9.93;;;5.30;;
77262;SDS011;66373;52.334;4.806;2023-12-20T00:57:15;8.82;;;4.70;;
77262;SDS011;66373;52.334;4.806;2023-12-20T00:59:42;12.55;;;5.10;;
77262;SDS011;66373;52.334;4.806;2023-12-20T01:02:10;9.57;;;5.20;;
77262;SDS011;66373;52.334;4.806;2023-12-20T01:04:39;12.82;;;5.15;;
77262;SDS011;66373;52.334;4.806;2023-12-20T01:07:06;11.02;;;4.88;;
77262;SDS011;66373;52.334;4.806;2023-12-20T01:09:34;10.63;;;4.78;;
77262;SDS011;66373;52.334;4.806;2023-12-20T01:12:01;10.07;;;4.93;;
77262;SDS011;66373;52.334;4.806;2023-12-20T01:14:29;9.63;;;4.75;;
77262;SDS011;66373;52.334;4.806;2023-12-20T01:16:56;8.13;;;4.97;;
77262;SDS011;66373;52.334;4.806;2023-12-20T01:19:24;6.32;;;4.32;;
77262;SDS011;66373;52.334;4.806;2023-12-20T01:21:53;9.50;;;4.80;;
77262;SDS011;66373;52.334;4.806;2023-12-20T01:24:24;11.02;;;4.72;;
77262;SDS011;66373;52.334;4.806;2023-12-20T01:26:51;9.35;;;4.95;;
77262;SDS011;66373;52.334;4.806;2023-12-20T01:29:20;6.60;;;4.13;;
77262;SDS011;66373;52.334;4.806;2023-12-20T01:31:47;10.10;;;4.93;;
77262;SDS011;66373;52.334;4.806;2023-12-20T01:34:15;7.80;;;4.47;;
77262;SDS011;66373;52.334;4.806;2023-12-20T01:36:42;7.10;;;4.60;;
77262;SDS011;66373;52.334;4.806;2023-12-20T01:39:14;8.30;;;4.35;;
77262;SDS011;66373;52.334;4.806;2023-12-20T01:41:42;7.85;;;4.78;;
77262;SDS011;66373;52.334;4.806;2023-12-20T01:44:09;8.68;;;3.95;;
77262;SDS011;66373;52.334;4.806;2023-12-20T01:46:36;8.35;;;4.85;;
77262;SDS011;66373;52.334;4.806;2023-12-20T01:49:04;6.88;;;4.35;;
77262;SDS011;66373;52.334;4.806;2023-12-20T01:51:31;8.35;;;4.60;;
77262;SDS011;66373;52.334;4.806;2023-12-20T01:53:59;7.82;;;4.07;;
77262;SDS011;66373;52.334;4.806;2023-12-20T01:56:29;7.40;;;4.10;;
77262;SDS011;66373;52.334;4.806;2023-12-20T01:58:58;9.48;;;4.63;;
77262;SDS011;66373;52.334;4.806;2023-12-20T02:01:27;9.60;;;4.80;;
77262;SDS011;66373;52.334;4.806;2023-12-20T02:03:55;8.43;;;4.15;;
77262;SDS011;66373;52.334;4.806;2023-12-20T02:06:23;8.15;;;3.75;;
77262;SDS011;66373;52.334;4.806;2023-12-20T02:08:56;6.00;;;4.00;;
77262;SDS011;66373;52.334;4.806;2023-12-20T02:11:24;7.88;;;3.92;;
77262;SDS011;66373;52.334;4.806;2023-12-20T02:13:54;6.50;;;3.85;;
77262;SDS011;66373;52.334;4.806;2023-12-20T02:16:21;7.65;;;4.20;;
77262;SDS011;66373;52.334;4.806;2023-12-20T02:18:50;7.55;;;3.90;;
77262;SDS011;66373;52.334;4.806;2023-12-20T02:21:17;5.35;;;3.83;;
77262;SDS011;66373;52.334;4.806;2023-12-20T02:23:46;7.70;;;4.10;;
77262;SDS011;66373;52.334;4.806;2023-12-20T02:26:13;6.15;;;4.10;;
77262;SDS011;66373;52.334;4.806;2023-12-20T02:28:40;7.18;;;4.00;;
77262;SDS011;66373;52.334;4.806;2023-12-20T02:31:07;8.70;;;4.50;;
77262;SDS011;66373;52.334;4.806;2023-12-20T02:33:35;7.32;;;3.90;;
77262;SDS011;66373;52.334;4.806;2023-12-20T02:36:02;5.75;;;3.83;;
77262;SDS011;66373;52.334;4.806;2023-12-20T02:38:30;6.47;;;3.95;;
77262;SDS011;66373;52.334;4.806;2023-12-20T02:40:58;8.18;;;4.28;;
77262;SDS011;66373;52.334;4.806;2023-12-20T02:43:26;5.60;;;3.75;;
77262;SDS011;66373;52.334;4.806;2023-12-20T02:45:53;6.13;;;4.00;;
77262;SDS011;66373;52.334;4.806;2023-12-20T02:48:20;7.47;;;4.28;;
77262;SDS011;66373;52.334;4.806;2023-12-20T02:50:47;5.18;;;3.53;;
77262;SDS011;66373;52.334;4.806;2023-12-20T02:53:15;6.80;;;3.63;;
77262;SDS011;66373;52.334;4.806;2023-12-20T02:55:42;5.57;;;3.40;;
77262;SDS011;66373;52.334;4.806;2023-12-20T02:58:11;7.00;;;4.00;;
77262;SDS011;66373;52.334;4.806;2023-12-20T03:00:38;7.53;;;3.85;;
77262;SDS011;66373;52.334;4.806;2023-12-20T03:03:05;6.97;;;3.67;;
77262;SDS011;66373;52.334;4.806;2023-12-20T03:05:33;5.57;;;3.50;;
77262;SDS011;66373;52.334;4.806;2023-12-20T03:08:01;6.25;;;3.47;;
77262;SDS011;66373;52.334;4.806;2023-12-20T03:10:28;7.22;;;3.83;;
77262;SDS011;66373;52.334;4.806;2023-12-20T03:12:55;7.57;;;3.53;;
77262;SDS011;66373;52.334;4.806;2023-12-20T03:15:24;5.13;;;3.30;;
77262;SDS011;66373;52.334;4.806;2023-12-20T03:17:51;6.18;;;3.72;;
77262;SDS011;66373;52.334;4.806;2023-12-20T03:20:19;4.82;;;3.38;;
77262;SDS011;66373;52.334;4.806;2023-12-20T03:22:46;6.63;;;3.60;;
77262;SDS011;66373;52.334;4.806;2023-12-20T03:25:13;9.90;;;3.85;;
77262;SDS011;66373;52.334;4.806;2023-12-20T03:27:40;6.43;;;3.28;;
77262;SDS011;66373;52.334;4.806;2023-12-20T03:30:08;8.77;;;3.45;;
77262;SDS011;66373;52.334;4.806;2023-12-20T03:32:37;8.20;;;4.50;;
77262;SDS011;66373;52.334;4.806;2023-12-20T03:35:05;7.00;;;3.65;;
77262;SDS011;66373;52.334;4.806;2023-12-20T03:37:33;5.35;;;3.55;;
77262;SDS011;66373;52.334;4.806;2023-12-20T03:40:00;7.28;;;3.85;;
77262;SDS011;66373;52.334;4.806;2023-12-20T03:42:27;6.80;;;3.53;;
77262;SDS011;66373;52.334;4.806;2023-12-20T03:44:54;6.28;;;3.22;;
77262;SDS011;66373;52.334;4.806;2023-12-20T03:47:22;4.82;;;3.03;;
77262;SDS011;66373;52.334;4.806;2023-12-20T03:49:50;4.80;;;3.38;;
77262;SDS011;66373;52.334;4.806;2023-12-20T03:52:17;6.68;;;3.20;;
77262;SDS011;66373;52.334;4.806;2023-12-20T03:54:45;4.55;;;3.15;;
77262;SDS011;66373;52.334;4.806;2023-12-20T03:57:12;6.05;;;3.00;;
77262;SDS011;66373;52.334;4.806;2023-12-20T03:59:39;5.95;;;3.03;;
77262;SDS011;66373;52.334;4.806;2023-12-20T04:02:06;7.57;;;2.88;;
77262;SDS011;66373;52.334;4.806;2023-12-20T04:04:34;4.65;;;3.28;;
77262;SDS011;66373;52.334;4.806;2023-12-20T04:07:02;4.63;;;3.63;;
77262;SDS011;66373;52.334;4.806;2023-12-20T04:09:30;5.20;;;3.30;;
77262;SDS011;66373;52.334;4.806;2023-12-20T04:11:57;4.25;;;2.95;;
77262;SDS011;66373;52.334;4.806;2023-12-20T04:14:24;6.07;;;2.90;;
77262;SDS011;66373;52.334;4.806;2023-12-20T04:16:52;4.07;;;2.97;;
77262;SDS011;66373;52.334;4.806;2023-12-20T04:19:19;4.00;;;2.95;;
77262;SDS011;66373;52.334;4.806;2023-12-20T04:21:47;3.67;;;2.75;;
77262;SDS011;66373;52.334;4.806;2023-12-20T04:24:16;6.45;;;3.22;;
77262;SDS011;66373;52.334;4.806;2023-12-20T04:26:43;6.18;;;2.88;;
77262;SDS011;66373;52.334;4.806;2023-12-20T04:29:10;5.50;;;3.10;;
77262;SDS011;66373;52.334;4.806;2023-12-20T04:31:38;6.85;;;3.00;;
77262;SDS011;66373;52.334;4.806;2023-12-20T04:34:05;5.55;;;2.83;;
77262;SDS011;66373;52.334;4.806;2023-12-20T04:36:32;5.22;;;2.70;;
77262;SDS011;66373;52.334;4.806;2023-12-20T04:38:59;5.45;;;3.00;;
77262;SDS011;66373;52.334;4.806;2023-12-20T04:41:28;5.70;;;2.90;;
77262;SDS011;66373;52.334;4.806;2023-12-20T04:43:56;4.38;;;2.90;;
77262;SDS011;66373;52.334;4.806;2023-12-20T04:46:23;3.85;;;2.30;;
77262;SDS011;66373;52.334;4.806;2023-12-20T04:48:50;4.72;;;2.97;;
77262;SDS011;66373;52.334;4.806;2023-12-20T04:51:18;6.45;;;3.00;;
77262;SDS011;66373;52.334;4.806;2023-12-20T04:53:45;4.78;;;2.60;;
77262;SDS011;66373;52.334;4.806;2023-12-20T04:56:12;6.03;;;2.85;;
77262;SDS011;66373;52.334;4.806;2023-12-20T04:58:41;7.88;;;3.45;;
77262;SDS011;66373;52.334;4.806;2023-12-20T05:01:09;5.00;;;2.40;;
77262;SDS011;66373;52.334;4.806;2023-12-20T05:03:37;5.80;;;2.67;;
77262;SDS011;66373;52.334;4.806;2023-12-20T05:06:04;12.90;;;3.30;;
77262;SDS011;66373;52.334;4.806;2023-12-20T05:08:31;6.10;;;2.55;;
77262;SDS011;66373;52.334;4.806;2023-12-20T05:10:58;5.68;;;2.80;;
77262;SDS011;66373;52.334;4.806;2023-12-20T05:13:26;5.88;;;3.05;;
77262;SDS011;66373;52.334;4.806;2023-12-20T05:15:55;6.88;;;3.03;;
77262;SDS011;66373;52.334;4.806;2023-12-20T05:18:22;4.40;;;2.72;;
77262;SDS011;66373;52.334;4.806;2023-12-20T05:20:49;5.97;;;2.50;;
77262;SDS011;66373;52.334;4.806;2023-12-20T05:23:18;4.72;;;2.60;;
77262;SDS011;66373;52.334;4.806;2023-12-20T05:25:45;5.65;;;2.65;;
77262;SDS011;66373;52.334;4.806;2023-12-20T05:28:13;4.53;;;2.53;;
77262;SDS011;66373;52.334;4.806;2023-12-20T05:30:40;4.05;;;2.60;;
77262;SDS011;66373;52.334;4.806;2023-12-20T05:33:08;5.07;;;2.70;;
77262;SDS011;66373;52.334;4.806;2023-12-20T05:35:36;5.47;;;2.67;;
77262;SDS011;66373;52.334;4.806;2023-12-20T05:38:03;5.22;;;2.63;;
77262;SDS011;66373;52.334;4.806;2023-12-20T05:40:30;4.75;;;2.42;;
77262;SDS011;66373;52.334;4.806;2023-12-20T05:42:58;6.05;;;2.70;;
77262;SDS011;66373;52.334;4.806;2023-12-20T05:45:25;4.57;;;2.40;;
77262;SDS011;66373;52.334;4.806;2023-12-20T05:47:52;4.00;;;2.17;;
77262;SDS011;66373;52.334;4.806;2023-12-20T05:50:21;7.18;;;2.63;;
77262;SDS011;66373;52.334;4.806;2023-12-20T05:52:48;3.28;;;2.40;;
77262;SDS011;66373;52.334;4.806;2023-12-20T05:55:15;4.80;;;2.50;;
77262;SDS011;66373;52.334;4.806;2023-12-20T05:57:43;6.53;;;2.95;;
77262;SDS011;66373;52.334;4.806;2023-12-20T06:00:10;4.85;;;2.78;;
77262;SDS011;66373;52.334;4.806;2023-12-20T06:02:39;4.75;;;2.60;;
77262;SDS011;66373;52.334;4.806;2023-12-20T06:05:06;6.75;;;2.83;;
77262;SDS011;66373;52.334;4.806;2023-12-20T06:07:35;10.00;;;2.97;;
77262;SDS011;66373;52.334;4.806;2023-12-20T06:10:03;5.80;;;2.58;;
77262;SDS011;66373;52.334;4.806;2023-12-20T06:12:31;6.60;;;2.55;;
77262;SDS011;66373;52.334;4.806;2023-12-20T06:15:01;5.30;;;2.63;;
77262;SDS011;66373;52.334;4.806;2023-12-20T06:17:28;2.88;;;2.28;;
77262;SDS011;66373;52.334;4.806;2023-12-20T06:19:56;6.88;;;2.60;;
77262;SDS011;66373;52.334;4.806;2023-12-20T06:22:24;4.55;;;2.60;;
77262;SDS011;66373;52.334;4.806;2023-12-20T06:24:53;5.82;;;2.72;;
77262;SDS011;66373;52.334;4.806;2023-12-20T06:27:20;7.50;;;2.38;;
77262;SDS011;66373;52.334;4.806;2023-12-20T06:29:47;5.55;;;2.47;;
77262;SDS011;66373;52.334;4.806;2023-12-20T06:32:14;6.20;;;2.85;;
77262;SDS011;66373;52.334;4.806;2023-12-20T06:34:42;4.70;;;2.45;;
77262;SDS011;66373;52.334;4.806;2023-12-20T06:37:09;7.20;;;2.65;;
77262;SDS011;66373;52.334;4.806;2023-12-20T06:39:37;5.90;;;2.90;;
77262;SDS011;66373;52.334;4.806;2023-12-20T06:42:06;4.20;;;2.65;;
77262;SDS011;66373;52.334;4.806;2023-12-20T06:44:33;7.30;;;3.38;;
77262;SDS011;66373;52.334;4.806;2023-12-20T06:47:00;5.75;;;3.28;;
77262;SDS011;66373;52.334;4.806;2023-12-20T06:49:27;7.75;;;3.85;;
77262;SDS011;66373;52.334;4.806;2023-12-20T06:51:54;6.45;;;3.60;;
77262;SDS011;66373;52.334;4.806;2023-12-20T06:54:22;7.78;;;3.60;;
77262;SDS011;66373;52.334;4.806;2023-12-20T06:56:49;11.38;;;4.32;;
77262;SDS011;66373;52.334;4.806;2023-12-20T06:59:18;8.77;;;4.60;;
77262;SDS011;66373;52.334;4.806;2023-12-20T07:01:47;13.10;;;5.45;;
77262;SDS011;66373;52.334;4.806;2023-12-20T07:04:15;16.08;;;7.22;;
77262;SDS011;66373;52.334;4.806;2023-12-20T07:06:47;16.25;;;8.20;;
77262;SDS011;66373;52.334;4.806;2023-12-20T07:09:17;16.58;;;9.35;;
77262;SDS011;66373;52.334;4.806;2023-12-20T07:11:45;16.55;;;8.90;;
77262;SDS011;66373;52.334;4.806;2023-12-20T07:14:13;17.38;;;9.07;;
77262;SDS011;66373;52.334;4.806;2023-12-20T07:16:41;17.25;;;7.60;;
77262;SDS011;66373;52.334;4.806;2023-12-20T07:19:09;13.77;;;8.38;;
77262;SDS011;66373;52.334;4.806;2023-12-20T07:21:36;15.38;;;8.05;;
77262;SDS011;66373;52.334;4.806;2023-12-20T07:24:03;15.40;;;7.45;;
77262;SDS011;66373;52.334;4.806;2023-12-20T07:26:34;17.50;;;6.68;;
77262;SDS011;66373;52.334;4.806;2023-12-20T07:29:03;15.38;;;7.22;;
77262;SDS011;66373;52.334;4.806;2023-12-20T07:31:31;10.98;;;6.28;;
77262;SDS011;66373;52.334;4.806;2023-12-20T07:33:59;12.35;;;6.20;;
77262;SDS011;66373;52.334;4.806;2023-12-20T07:36:27;13.38;;;5.57;;
77262;SDS011;66373;52.334;4.806;2023-12-20T07:38:54;14.43;;;5.55;;
77262;SDS011;66373;52.334;4.806;2023-12-20T07:41:21;13.70;;;6.40;;
77262;SDS011;66373;52.334;4.806;2023-12-20T07:43:49;13.95;;;6.18;;
77262;SDS011;66373;52.334;4.806;2023-12-20T07:46:16;15.93;;;6.70;;
77262;SDS011;66373;52.334;4.806;2023-12-20T07:48:48;16.50;;;6.00;;
77262;SDS011;66373;52.334;4.806;2023-12-20T07:51:16;14.70;;;6.07;;
77262;SDS011;66373;52.334;4.806;2023-12-20T07:53:44;12.43;;;5.82;;
77262;SDS011;66373;52.334;4.806;2023-12-20T07:56:15;12.90;;;6.22;;
77262;SDS011;66373;52.334;4.806;2023-12-20T07:58:42;12.95;;;5.88;;
77262;SDS011;66373;52.334;4.806;2023-12-20T08:01:11;12.23;;;5.57;;
77262;SDS011;66373;52.334;4.806;2023-12-20T08:03:38;13.90;;;5.45;;
77262;SDS011;66373;52.334;4.806;2023-12-20T08:06:06;10.80;;;5.00;;
77262;SDS011;66373;52.334;4.806;2023-12-20T08:08:34;7.70;;;4.72;;
77262;SDS011;66373;52.334;4.806;2023-12-20T08:11:02;10.25;;;5.20;;
77262;SDS011;66373;52.334;4.806;2023-12-20T08:13:29;13.35;;;4.82;;
77262;SDS011;66373;52.334;4.806;2023-12-20T08:15:57;11.93;;;4.75;;
77262;SDS011;66373;52.334;4.806;2023-12-20T08:18:24;8.25;;;4.20;;
77262;SDS011;66373;52.334;4.806;2023-12-20T08:20:52;13.55;;;4.78;;
77262;SDS011;66373;52.334;4.806;2023-12-20T08:23:19;7.60;;;4.25;;
77262;SDS011;66373;52.334;4.806;2023-12-20T08:25:48;8.50;;;3.90;;
77262;SDS011;66373;52.334;4.806;2023-12-20T08:28:15;13.73;;;4.80;;
77262;SDS011;66373;52.334;4.806;2023-12-20T08:30:43;10.48;;;4.05;;
77262;SDS011;66373;52.334;4.806;2023-12-20T08:33:10;14.27;;;4.90;;
77262;SDS011;66373;52.334;4.806;2023-12-20T08:35:38;9.05;;;3.67;;
77262;SDS011;66373;52.334;4.806;2023-12-20T08:38:06;12.93;;;4.60;;
77262;SDS011;66373;52.334;4.806;2023-12-20T08:40:33;9.15;;;3.72;;
77262;SDS011;66373;52.334;4.806;2023-12-20T08:43:02;7.55;;;3.80;;
77262;SDS011;66373;52.334;4.806;2023-12-20T08:45:29;10.90;;;4.18;;
77262;SDS011;66373;52.334;4.806;2023-12-20T08:47:57;9.32;;;3.72;;
77262;SDS011;66373;52.334;4.806;2023-12-20T08:50:25;8.38;;;3.55;;
77262;SDS011;66373;52.334;4.806;2023-12-20T08:52:52;9.68;;;3.58;;
77262;SDS011;66373;52.334;4.806;2023-12-20T08:55:20;7.97;;;3.10;;
77262;SDS011;66373;52.334;4.806;2023-12-20T08:57:47;8.48;;;3.25;;
77262;SDS011;66373;52.334;4.806;2023-12-20T09:00:18;6.82;;;3.22;;
77262;SDS011;66373;52.334;4.806;2023-12-20T09:02:49;6.47;;;3.28;;
77262;SDS011;66373;52.334;4.806;2023-12-20T09:05:16;8.10;;;3.05;;
77262;SDS011;66373;52.334;4.806;2023-12-20T09:07:45;7.38;;;3.55;;
77262;SDS011;66373;52.334;4.806;2023-12-20T09:10:12;12.80;;;3.08;;
77262;SDS011;66373;52.334;4.806;2023-12-20T09:12:43;6.50;;;2.95;;
77262;SDS011;66373;52.334;4.806;2023-12-20T09:15:12;6.68;;;3.03;;
77262;SDS011;66373;52.334;4.806;2023-12-20T09:17:41;6.80;;;3.30;;
77262;SDS011;66373;52.334;4.806;2023-12-20T09:20:09;5.95;;;3.30;;
77262;SDS011;66373;52.334;4.806;2023-12-20T09:22:39;6.10;;;3.00;;
77262;SDS011;66373;52.334;4.806;2023-12-20T09:25:07;8.10;;;3.28;;
77262;SDS011;66373;52.334;4.806;2023-12-20T09:27:35;8.48;;;3.00;;
77262;SDS011;66373;52.334;4.806;2023-12-20T09:30:03;8.20;;;3.20;;
77262;SDS011;66373;52.334;4.806;2023-12-20T09:32:31;8.02;;;3.45;;
77262;SDS011;66373;52.334;4.806;2023-12-20T09:35:00;9.25;;;3.20;;
77262;SDS011;66373;52.334;4.806;2023-12-20T09:37:27;8.35;;;3.03;;
77262;SDS011;66373;52.334;4.806;2023-12-20T09:39:55;5.60;;;2.92;;
77262;SDS011;66373;52.334;4.806;2023-12-20T09:42:24;10.27;;;3.20;;
77262;SDS011;66373;52.334;4.806;2023-12-20T09:45:00;12.60;;;3.17;;
77262;SDS011;66373;52.334;4.806;2023-12-20T09:47:29;6.45;;;2.67;;
77262;SDS011;66373;52.334;4.806;2023-12-20T09:50:00;6.55;;;2.78;;
77262;SDS011;66373;52.334;4.806;2023-12-20T09:52:28;6.95;;;2.72;;
77262;SDS011;66373;52.334;4.806;2023-12-20T09:54:56;7.82;;;2.53;;
77262;SDS011;66373;52.334;4.806;2023-12-20T09:57:24;6.03;;;2.58;;
77262;SDS011;66373;52.334;4.806;2023-12-20T09:59:51;4.07;;;2.42;;
77262;SDS011;66373;52.334;4.806;2023-12-20T10:02:19;5.05;;;2.80;;
77262;SDS011;66373;52.334;4.806;2023-12-20T10:04:52;7.28;;;2.88;;
77262;SDS011;66373;52.334;4.806;2023-12-20T10:07:23;6.78;;;2.38;;
77262;SDS011;66373;52.334;4.806;2023-12-20T10:09:51;7.47;;;2.67;;
77262;SDS011;66373;52.334;4.806;2023-12-20T10:12:21;5.57;;;2.70;;
77262;SDS011;66373;52.334;4.806;2023-12-20T10:14:48;7.85;;;2.55;;
77262;SDS011;66373;52.334;4.806;2023-12-20T10:17:16;7.15;;;2.80;;
77262;SDS011;66373;52.334;4.806;2023-12-20T10:19:43;6.45;;;3.30;;
77262;SDS011;66373;52.334;4.806;2023-12-20T10:22:11;7.30;;;2.90;;
77262;SDS011;66373;52.334;4.806;2023-12-20T10:24:41;5.55;;;2.58;;
77262;SDS011;66373;52.334;4.806;2023-12-20T10:27:08;7.03;;;2.75;;
77262;SDS011;66373;52.334;4.806;2023-12-20T10:29:36;6.20;;;2.70;;
77262;SDS011;66373;52.334;4.806;2023-12-20T10:32:22;7.22;;;2.53;;
77262;SDS011;66373;52.334;4.806;2023-12-20T10:34:51;5.38;;;2.55;;
77262;SDS011;66373;52.334;4.806;2023-12-20T10:37:18;6.63;;;2.63;;
77262;SDS011;66373;52.334;4.806;2023-12-20T10:39:49;7.60;;;2.67;;
77262;SDS011;66373;52.334;4.806;2023-12-20T10:42:18;5.53;;;3.20;;
77262;SDS011;66373;52.334;4.806;2023-12-20T10:44:48;5.07;;;2.67;;
77262;SDS011;66373;52.334;4.806;2023-12-20T10:47:17;7.85;;;2.83;;
77262;SDS011;66373;52.334;4.806;2023-12-20T10:49:46;6.50;;;2.60;;
77262;SDS011;66373;52.334;4.806;2023-12-20T10:52:14;5.22;;;2.90;;
77262;SDS011;66373;52.334;4.806;2023-12-20T10:54:43;5.13;;;2.67;;
77262;SDS011;66373;52.334;4.806;2023-12-20T10:57:13;6.78;;;2.50;;
77262;SDS011;66373;52.334;4.806;2023-12-20T10:59:43;5.75;;;2.65;;
77262;SDS011;66373;52.334;4.806;2023-12-20T11:02:13;6.18;;;2.50;;
77262;SDS011;66373;52.334;4.806;2023-12-20T11:04:42;9.50;;;2.55;;
77262;SDS011;66373;52.334;4.806;2023-12-20T11:07:17;4.00;;;2.13;;
77262;SDS011;66373;52.334;4.806;2023-12-20T11:09:51;5.05;;;3.00;;
77262;SDS011;66373;52.334;4.806;2023-12-20T11:12:28;5.57;;;2.85;;
77262;SDS011;66373;52.334;4.806;2023-12-20T11:15:05;4.85;;;2.60;;
77262;SDS011;66373;52.334;4.806;2023-12-20T11:17:38;4.50;;;2.40;;
77262;SDS011;66373;52.334;4.806;2023-12-20T11:20:07;5.47;;;2.63;;
77262;SDS011;66373;52.334;4.806;2023-12-20T11:22:37;5.63;;;2.30;;
77262;SDS011;66373;52.334;4.806;2023-12-20T11:25:07;7.50;;;3.00;;
77262;SDS011;66373;52.334;4.806;2023-12-20T11:27:40;4.95;;;2.45;;
77262;SDS011;66373;52.334;4.806;2023-12-20T11:30:09;6.57;;;2.53;;
77262;SDS011;66373;52.334;4.806;2023-12-20T11:32:37;8.05;;;2.50;;
77262;SDS011;66373;52.334;4.806;2023-12-20T11:35:18;5.97;;;3.22;;
77262;SDS011;66373;52.334;4.806;2023-12-20T11:37:49;5.45;;;2.65;;
77262;SDS011;66373;52.334;4.806;2023-12-20T11:40:18;5.70;;;2.53;;
77262;SDS011;66373;52.334;4.806;2023-12-20T11:42:49;6.68;;;3.05;;
77262;SDS011;66373;52.334;4.806;2023-12-20T11:45:18;7.70;;;2.95;;
77262;SDS011;66373;52.334;4.806;2023-12-20T11:47:47;3.60;;;2.10;;
77262;SDS011;66373;52.334;4.806;2023-12-20T11:50:16;4.22;;;2.40;;
77262;SDS011;66373;52.334;4.806;2023-12-20T11:52:44;4.65;;;2.67;;
77262;SDS011;66373;52.334;4.806;2023-12-20T11:55:11;6.55;;;2.50;;
77262;SDS011;66373;52.334;4.806;2023-12-20T11:57:39;4.60;;;2.33;;
77262;SDS011;66373;52.334;4.806;2023-12-20T12:00:09;5.95;;;2.60;;
77262;SDS011;66373;52.334;4.806;2023-12-20T12:02:39;4.50;;;2.50;;
77262;SDS011;66373;52.334;4.806;2023-12-20T12:05:07;3.67;;;2.00;;
77262;SDS011;66373;52.334;4.806;2023-12-20T12:07:34;5.45;;;2.47;;
77262;SDS011;66373;52.334;4.806;2023-12-20T12:10:05;6.72;;;2.67;;
77262;SDS011;66373;52.334;4.806;2023-12-20T12:12:33;4.68;;;2.60;;
77262;SDS011;66373;52.334;4.806;2023-12-20T12:15:01;5.15;;;2.90;;
77262;SDS011;66373;52.334;4.806;2023-12-20T12:17:29;4.43;;;2.25;;
77262;SDS011;66373;52.334;4.806;2023-12-20T12:20:01;4.25;;;2.67;;
77262;SDS011;66373;52.334;4.806;2023-12-20T12:22:30;5.15;;;2.50;;
77262;SDS011;66373;52.334;4.806;2023-12-20T12:24:58;5.80;;;2.58;;
77262;SDS011;66373;52.334;4.806;2023-12-20T12:27:35;3.88;;;2.63;;
77262;SDS011;66373;52.334;4.806;2023-12-20T12:30:04;3.28;;;2.00;;
77262;SDS011;66373;52.334;4.806;2023-12-20T12:32:40;4.10;;;2.35;;
77262;SDS011;66373;52.334;4.806;2023-12-20T12:35:07;5.10;;;2.67;;
77262;SDS011;66373;52.334;4.806;2023-12-20T12:37:37;4.22;;;2.60;;
77262;SDS011;66373;52.334;4.806;2023-12-20T12:40:06;4.15;;;2.22;;
77262;SDS011;66373;52.334;4.806;2023-12-20T12:42:36;5.13;;;2.80;;
77262;SDS011;66373;52.334;4.806;2023-12-20T12:45:04;6.47;;;2.80;;
77262;SDS011;66373;52.334;4.806;2023-12-20T12:47:32;5.50;;;2.30;;
77262;SDS011;66373;52.334;4.806;2023-12-20T12:50:02;3.40;;;2.22;;
77262;SDS011;66373;52.334;4.806;2023-12-20T12:52:30;7.35;;;2.45;;
77262;SDS011;66373;52.334;4.806;2023-12-20T12:54:57;3.80;;;2.25;;
77262;SDS011;66373;52.334;4.806;2023-12-20T12:57:24;7.07;;;2.63;;
77262;SDS011;66373;52.334;4.806;2023-12-20T12:59:52;4.03;;;2.42;;
77262;SDS011;66373;52.334;4.806;2023-12-20T13:02:19;3.70;;;2.35;;
77262;SDS011;66373;52.334;4.806;2023-12-20T13:04:46;3.45;;;2.30;;
77262;SDS011;66373;52.334;4.806;2023-12-20T13:07:15;4.90;;;2.22;;
77262;SDS011;66373;52.334;4.806;2023-12-20T13:09:42;6.10;;;2.53;;
77262;SDS011;66373;52.334;4.806;2023-12-20T13:12:10;4.05;;;2.30;;
77262;SDS011;66373;52.334;4.806;2023-12-20T13:14:37;4.65;;;2.60;;
77262;SDS011;66373;52.334;4.806;2023-12-20T13:17:04;4.22;;;2.38;;
77262;SDS011;66373;52.334;4.806;2023-12-20T13:19:34;6.22;;;2.72;;
77262;SDS011;66373;52.334;4.806;2023-12-20T13:22:02;5.45;;;2.63;;
77262;SDS011;66373;52.334;4.806;2023-12-20T13:24:31;4.65;;;2.38;;
77262;SDS011;66373;52.334;4.806;2023-12-20T13:26:59;4.78;;;2.53;;
77262;SDS011;66373;52.334;4.806;2023-12-20T13:29:26;3.90;;;2.47;;
77262;SDS011;66373;52.334;4.806;2023-12-20T13:31:55;4.18;;;2.53;;
77262;SDS011;66373;52.334;4.806;2023-12-20T13:34:24;4.13;;;2.47;;
77262;SDS011;66373;52.334;4.806;2023-12-20T13:36:52;6.80;;;2.60;;
77262;SDS011;66373;52.334;4.806;2023-12-20T13:39:24;5.97;;;2.50;;
77262;SDS011;66373;52.334;4.806;2023-12-20T13:41:53;5.68;;;2.55;;
77262;SDS011;66373;52.334;4.806;2023-12-20T13:44:20;5.88;;;2.67;;
77262;SDS011;66373;52.334;4.806;2023-12-20T13:46:47;5.55;;;2.55;;
77262;SDS011;66373;52.334;4.806;2023-12-20T13:49:16;5.10;;;2.35;;
77262;SDS011;66373;52.334;4.806;2023-12-20T13:51:43;4.97;;;2.70;;
77262;SDS011;66373;52.334;4.806;2023-12-20T13:54:12;4.65;;;2.70;;
77262;SDS011;66373;52.334;4.806;2023-12-20T13:56:42;4.32;;;2.45;;
77262;SDS011;66373;52.334;4.806;2023-12-20T13:59:11;5.35;;;2.38;;
77262;SDS011;66373;52.334;4.806;2023-12-20T14:01:39;4.28;;;2.25;;
77262;SDS011;66373;52.334;4.806;2023-12-20T14:04:07;6.47;;;2.90;;
77262;SDS011;66373;52.334;4.806;2023-12-20T14:06:34;7.40;;;2.60;;
77262;SDS011;66373;52.334;4.806;2023-12-20T14:09:04;5.00;;;2.35;;
77262;SDS011;66373;52.334;4.806;2023-12-20T14:11:31;6.63;;;2.60;;
77262;SDS011;66373;52.334;4.806;2023-12-20T14:13:59;5.97;;;2.97;;
77262;SDS011;66373;52.334;4.806;2023-12-20T14:16:28;5.28;;;2.55;;
77262;SDS011;66373;52.334;4.806;2023-12-20T14:18:55;7.55;;;3.63;;
77262;SDS011;66373;52.334;4.806;2023-12-20T14:21:23;10.52;;;5.03;;
77262;SDS011;66373;52.334;4.806;2023-12-20T14:23:51;9.65;;;5.38;;
77262;SDS011;66373;52.334;4.806;2023-12-20T14:26:18;11.77;;;5.15;;
77262;SDS011;66373;52.334;4.806;2023-12-20T14:28:46;10.50;;;5.72;;
77262;SDS011;66373;52.334;4.806;2023-12-20T14:31:13;13.05;;;6.72;;
77262;SDS011;66373;52.334;4.806;2023-12-20T14:33:41;13.73;;;5.75;;
77262;SDS011;66373;52.334;4.806;2023-12-20T14:36:09;16.25;;;7.68;;
77262;SDS011;66373;52.334;4.806;2023-12-20T14:38:36;13.73;;;8.38;;
77262;SDS011;66373;52.334;4.806;2023-12-20T14:41:04;16.63;;;7.97;;
77262;SDS011;66373;52.334;4.806;2023-12-20T14:43:34;16.70;;;7.75;;
77262;SDS011;66373;52.334;4.806;2023-12-20T14:46:06;14.90;;;8.63;;
77262;SDS011;66373;52.334;4.806;2023-12-20T14:48:33;14.27;;;8.25;;
77262;SDS011;66373;52.334;4.806;2023-12-20T14:51:02;14.32;;;7.47;;